Time;durP1;ratioP1;P1;durP2;ratioP2;P2;SDS_P1;SDS_P2;PMS_P1;PMS_P2;Temp;Humidity;BMP_temperature;BMP_pressure;BME280_temperature;BME280_humidity;BME280_pressure;Samples;Min_cycle;Max_cycle;Signal;HPM_P1;HPM_P2
2021/04/17 00:00:30;;;;;;;9.95;5.15;;;8.70;57.00;;;;;;5076953;28;20045;-77
2021/04/17 00:02:57;;;;;;;9.82;6.13;;;8.60;57.40;;;;;;5070795;28;20059;-76
2021/04/17 00:05:23;;;;;;;11.57;6.15;;;8.50;57.90;;;;;;5068621;28;20456;-75
2021/04/17 00:07:50;;;;;;;13.45;7.07;;;8.40;58.10;;;;;;5070215;28;20103;-75
2021/04/17 00:10:17;;;;;;;16.65;7.88;;;8.30;58.20;;;;;;5068834;28;20449;-75
2021/04/17 00:12:44;;;;;;;15.00;7.90;;;8.30;58.30;;;;;;5068390;28;20100;-77
2021/04/17 00:15:10;;;;;;;16.30;7.90;;;8.40;57.90;;;;;;5068484;28;20487;-77
2021/04/17 00:17:38;;;;;;;7.07;4.03;;;8.40;58.00;;;;;;5069651;28;20044;-77
2021/04/17 00:20:05;;;;;;;5.78;2.85;;;8.40;58.30;;;;;;5070812;28;20074;-77
2021/04/17 00:22:32;;;;;;;7.80;3.45;;;8.60;57.90;;;;;;5069621;28;20444;-75
2021/04/17 00:24:59;;;;;;;4.97;2.92;;;8.60;57.70;;;;;;5071499;28;20097;-77
2021/04/17 00:27:25;;;;;;;4.00;2.65;;;8.50;57.60;;;;;;5072642;27;20498;-77
2021/04/17 00:29:51;;;;;;;4.18;2.72;;;8.40;57.80;;;;;;5071435;28;20556;-77
2021/04/17 00:32:18;;;;;;;4.60;2.50;;;8.50;58.00;;;;;;5072053;28;20118;-76
2021/04/17 00:34:45;;;;;;;4.43;2.70;;;8.40;58.20;;;;;;5070302;28;20060;-77
2021/04/17 00:37:11;;;;;;;5.03;2.35;;;8.30;58.90;;;;;;5077904;28;20115;-77
2021/04/17 00:39:38;;;;;;;5.05;2.80;;;8.20;59.00;;;;;;5071972;28;20085;-76
2021/04/17 00:42:06;;;;;;;6.55;3.15;;;8.20;59.40;;;;;;5076881;28;20173;-77
2021/04/17 00:44:34;;;;;;;4.93;3.03;;;8.20;59.70;;;;;;5072079;28;21061;-77
2021/04/17 00:47:02;;;;;;;9.23;3.63;;;8.10;60.20;;;;;;5080278;28;20087;-77
2021/04/17 00:49:30;;;;;;;5.47;3.53;;;8.20;61.30;;;;;;5073544;28;20071;-77
2021/04/17 00:51:56;;;;;;;9.70;3.55;;;8.10;61.50;;;;;;5080368;28;20131;-77
2021/04/17 00:54:23;;;;;;;5.75;3.38;;;8.00;62.10;;;;;;5081251;28;20041;-76
2021/04/17 00:56:49;;;;;;;5.45;3.45;;;7.90;62.80;;;;;;5072360;28;20044;-75
2021/04/17 00:59:16;;;;;;;6.97;3.22;;;7.90;63.20;;;;;;5071762;28;20117;-74
2021/04/17 01:01:43;;;;;;;5.25;3.45;;;7.90;63.60;;;;;;5071800;28;20548;-76
2021/04/17 01:04:35;;;;;;;7.45;3.88;;;7.80;63.50;;;;;;5076465;28;20136;-77
2021/04/17 01:07:07;;;;;;;7.07;3.38;;;7.70;64.00;;;;;;5071237;28;20052;-74
2021/04/17 01:10:06;;;;;;;7.38;3.75;;;7.70;64.10;;;;;;5073233;28;20094;-77
2021/04/17 01:12:38;;;;;;;6.50;3.35;;;7.60;64.90;;;;;;5068772;28;20110;-76
2021/04/17 01:15:06;;;;;;;6.40;3.80;;;7.70;64.40;;;;;;5069824;28;21365;-76
2021/04/17 01:17:34;;;;;;;6.57;3.97;;;8.00;63.30;;;;;;5072765;28;20093;-76
2021/04/17 01:20:08;;;;;;;7.07;4.07;;;8.00;62.60;;;;;;5071445;28;20041;-77
2021/04/17 01:22:37;;;;;;;6.43;3.97;;;7.80;62.90;;;;;;5073818;28;20457;-77
2021/04/17 01:25:09;;;;;;;5.13;3.60;;;7.80;63.50;;;;;;5071015;28;20051;-77
2021/04/17 01:27:36;;;;;;;6.75;3.72;;;7.80;63.00;;;;;;5074175;28;20098;-77
2021/04/17 01:30:21;;;;;;;6.85;3.90;;;8.00;62.60;;;;;;5070945;28;20044;-77
2021/04/17 01:32:48;;;;;;;6.70;3.88;;;8.00;62.30;;;;;;5070680;28;20063;-77
2021/04/17 01:35:18;;;;;;;7.80;4.03;;;8.00;62.40;;;;;;5084559;28;20044;-77
2021/04/17 01:38:28;;;;;;;5.50;3.37;;;8.00;61.90;;;;;;5080328;28;20082;-77
2021/04/17 01:40:59;;;;;;;5.50;3.20;;;8.00;61.80;;;;;;5068416;28;20040;-77
2021/04/17 01:43:28;;;;;;;6.63;3.70;;;8.00;61.40;;;;;;5072218;28;20063;-75
2021/04/17 01:45:59;;;;;;;6.25;3.58;;;8.00;61.00;;;;;;5083507;28;20052;-77
2021/04/17 01:48:29;;;;;;;5.88;3.38;;;7.90;61.20;;;;;;5070954;28;20087;-77
2021/04/17 01:51:00;;;;;;;8.27;4.18;;;8.00;61.20;;;;;;5077193;28;20127;-74
2021/04/17 01:53:30;;;;;;;6.57;3.78;;;7.80;61.40;;;;;;5072582;28;20043;-76
2021/04/17 01:55:59;;;;;;;5.85;3.60;;;7.80;61.70;;;;;;5074290;28;20049;-77
2021/04/17 01:58:28;;;;;;;7.15;3.55;;;7.70;62.10;;;;;;5070011;28;20059;-76
2021/04/17 02:00:56;;;;;;;;;;;7.70;62.30;;;;;;5072168;28;20452;-75
2021/04/17 02:03:23;;;;;;;6.05;3.78;;;7.50;62.70;;;;;;5079205;28;19950;-77
2021/04/17 02:05:50;;;;;;;7.30;4.07;;;7.40;63.30;;;;;;5071475;28;20053;-77
2021/04/17 02:08:18;;;;;;;6.07;3.60;;;7.50;63.50;;;;;;5069886;28;20109;-74
2021/04/17 02:10:46;;;;;;;6.40;4.10;;;7.40;63.50;;;;;;5066545;28;20040;-78
2021/04/17 02:13:13;;;;;;;10.48;3.90;;;7.40;63.60;;;;;;5071092;28;20060;-78
2021/04/17 02:15:41;;;;;;;7.10;4.55;;;7.30;64.10;;;;;;5068011;28;20052;-78
2021/04/17 02:18:23;;;;;;;8.57;4.18;;;7.30;64.50;;;;;;5070800;28;20388;-75
2021/04/17 02:21:06;;;;;;;9.68;4.20;;;7.40;64.10;;;;;;5080384;28;20044;-78
2021/04/17 02:23:33;;;;;;;6.15;3.83;;;7.30;64.40;;;;;;5068906;28;20047;-76
2021/04/17 02:26:04;;;;;;;8.40;4.68;;;7.30;64.40;;;;;;5078948;28;20048;-78
2021/04/17 02:28:31;;;;;;;11.45;4.53;;;7.20;64.60;;;;;;5075636;28;20055;-78
2021/04/17 02:31:02;;;;;;;7.78;3.90;;;7.10;64.70;;;;;;5069586;28;20471;-77
2021/04/17 02:33:28;;;;;;;6.25;4.18;;;7.20;64.40;;;;;;5071153;28;20041;-78
2021/04/17 02:35:55;;;;;;;6.40;4.35;;;7.30;64.20;;;;;;5068288;28;20123;-78
2021/04/17 02:38:22;;;;;;;8.65;4.90;;;7.30;64.20;;;;;;5067645;28;20051;-75
2021/04/17 02:40:48;;;;;;;6.45;4.03;;;7.10;64.70;;;;;;5078691;28;20099;-74
2021/04/17 02:43:14;;;;;;;7.30;4.05;;;7.10;65.30;;;;;;5071183;28;20052;-77
2021/04/17 02:45:41;;;;;;;7.57;4.45;;;7.10;65.50;;;;;;5069352;28;20061;-74
2021/04/17 02:48:07;;;;;;;9.02;4.85;;;6.90;65.70;;;;;;5071990;28;20044;-77
2021/04/17 02:50:34;;;;;;;7.07;4.68;;;6.90;66.00;;;;;;5069109;28;20048;-77
2021/04/17 02:53:00;;;;;;;8.13;4.40;;;6.80;66.10;;;;;;5070032;28;20048;-77
2021/04/17 02:55:26;;;;;;;6.55;3.92;;;6.80;66.30;;;;;;5076292;28;20106;-77
2021/04/17 02:57:53;;;;;;;7.72;4.43;;;6.80;66.30;;;;;;5089190;28;20048;-78
2021/04/17 03:00:25;;;;;;;8.80;4.50;;;6.80;66.40;;;;;;5080906;28;20055;-78
2021/04/17 03:02:52;;;;;;;5.53;3.80;;;6.80;66.50;;;;;;5098948;28;20732;-77
2021/04/17 03:05:19;;;;;;;6.78;4.80;;;7.00;66.30;;;;;;5085238;28;20151;-77
2021/04/17 03:07:46;;;;;;;7.53;4.35;;;7.00;65.70;;;;;;5090537;28;20602;-76
2021/04/17 03:10:13;;;;;;;7.47;4.18;;;7.20;65.10;;;;;;5085669;28;20040;-77
2021/04/17 03:12:40;;;;;;;8.90;4.38;;;7.30;64.40;;;;;;5088164;28;20488;-77
2021/04/17 03:15:08;;;;;;;5.90;3.95;;;7.20;65.10;;;;;;5091430;28;20059;-76
2021/04/17 03:17:34;;;;;;;7.55;4.47;;;7.00;65.60;;;;;;5084374;28;20040;-76
2021/04/17 03:20:03;;;;;;;6.57;4.47;;;6.90;66.00;;;;;;5081328;28;20051;-77
2021/04/17 03:22:29;;;;;;;6.57;4.10;;;6.70;66.60;;;;;;5083649;28;20545;-76
2021/04/17 03:24:56;;;;;;;7.70;4.93;;;6.50;66.90;;;;;;5078498;28;20872;-76
2021/04/17 03:27:22;;;;;;;6.65;4.35;;;6.70;67.20;;;;;;5086554;28;20043;-76
2021/04/17 03:29:49;;;;;;;9.50;4.40;;;6.70;67.00;;;;;;5084471;28;20139;-78
2021/04/17 03:32:15;;;;;;;7.75;4.35;;;6.80;66.70;;;;;;5083051;28;20094;-78
2021/04/17 03:34:42;;;;;;;6.70;4.03;;;7.00;66.10;;;;;;5087383;28;20055;-78
2021/04/17 03:37:08;;;;;;;9.75;4.55;;;7.10;65.50;;;;;;5086390;28;20048;-78
2021/04/17 03:39:34;;;;;;;9.02;5.28;;;7.00;65.50;;;;;;5088264;28;20043;-77
2021/04/17 03:42:01;;;;;;;7.70;4.60;;;6.90;65.90;;;;;;5086556;28;20399;-77
2021/04/17 03:44:27;;;;;;;7.03;4.18;;;6.70;66.30;;;;;;5087171;28;20040;-76
2021/04/17 03:46:54;;;;;;;6.55;4.65;;;6.80;66.60;;;;;;5085307;28;20051;-78
2021/04/17 03:49:20;;;;;;;8.02;4.55;;;6.80;66.80;;;;;;5085889;28;20084;-78
2021/04/17 03:51:47;;;;;;;6.75;4.53;;;6.70;66.60;;;;;;5088268;28;20109;-78
2021/04/17 03:54:14;;;;;;;8.65;4.15;;;6.80;66.60;;;;;;5086983;28;20047;-78
2021/04/17 03:56:40;;;;;;;7.78;4.57;;;6.70;67.00;;;;;;5074549;28;20116;-77
2021/04/17 03:59:07;;;;;;;7.55;4.45;;;6.70;67.00;;;;;;5077790;28;20522;-77
2021/04/17 04:01:33;;;;;;;6.55;4.60;;;6.70;67.20;;;;;;5085698;28;20068;-77
2021/04/17 04:04:00;;;;;;;8.70;4.45;;;6.60;67.20;;;;;;5094028;28;20475;-77
2021/04/17 04:06:27;;;;;;;7.90;4.47;;;6.80;67.00;;;;;;5088759;28;20044;-78
2021/04/17 04:08:53;;;;;;;7.68;4.82;;;6.80;66.70;;;;;;5088169;28;20040;-77
2021/04/17 04:11:20;;;;;;;6.28;4.45;;;6.70;67.10;;;;;;5092444;28;20521;-78
2021/04/17 04:13:46;;;;;;;7.00;4.70;;;6.80;67.10;;;;;;5087124;28;20080;-77
2021/04/17 04:16:13;;;;;;;9.15;4.18;;;6.80;67.00;;;;;;5092376;28;20056;-77
2021/04/17 04:18:40;;;;;;;7.45;4.35;;;6.90;66.60;;;;;;5091766;28;20052;-77
2021/04/17 04:21:06;;;;;;;7.07;4.55;;;7.00;65.70;;;;;;5090950;28;20102;-77
2021/04/17 04:23:32;;;;;;;6.68;4.32;;;6.90;65.60;;;;;;5095453;28;20048;-78
2021/04/17 04:25:59;;;;;;;10.10;4.18;;;6.80;66.10;;;;;;5082720;28;20564;-77
2021/04/17 04:28:25;;;;;;;10.57;4.38;;;6.80;66.20;;;;;;5089663;28;20131;-76
2021/04/17 04:30:52;;;;;;;6.32;4.20;;;6.80;66.10;;;;;;5082918;28;20056;-78
2021/04/17 04:33:18;;;;;;;10.70;4.38;;;6.90;66.00;;;;;;5086964;28;21022;-77
2021/04/17 04:35:45;;;;;;;8.02;4.65;;;6.80;66.10;;;;;;5092598;28;20044;-77
2021/04/17 04:38:11;;;;;;;6.70;4.10;;;6.70;66.30;;;;;;5089979;28;20557;-77
2021/04/17 04:40:37;;;;;;;9.95;4.78;;;6.70;66.80;;;;;;5088788;28;20062;-77
2021/04/17 04:43:04;;;;;;;7.28;4.75;;;6.60;67.00;;;;;;5090783;28;20043;-77
2021/04/17 04:45:31;;;;;;;6.65;4.40;;;6.70;66.70;;;;;;5084881;28;20044;-76
2021/04/17 04:47:58;;;;;;;11.85;4.47;;;6.80;66.80;;;;;;5087764;28;20056;-77
2021/04/17 04:50:25;;;;;;;7.30;4.40;;;6.80;66.60;;;;;;5085533;28;20127;-77
2021/04/17 04:52:51;;;;;;;7.70;4.70;;;7.00;67.10;;;;;;5080298;28;20094;-76
2021/04/17 04:55:18;;;;;;;12.07;4.82;;;6.90;66.60;;;;;;5093860;28;20044;-78
2021/04/17 04:57:44;;;;;;;10.77;4.50;;;7.10;66.00;;;;;;5092217;28;20493;-78
2021/04/17 05:00:11;;;;;;;8.20;5.00;;;7.00;66.10;;;;;;5075859;28;20110;-77
2021/04/17 05:02:38;;;;;;;9.27;4.78;;;7.10;66.40;;;;;;5091097;28;20121;-78
2021/04/17 05:05:05;;;;;;;14.13;5.57;;;7.10;66.40;;;;;;5088810;28;20044;-78
2021/04/17 05:07:32;;;;;;;11.45;5.45;;;7.00;66.60;;;;;;5092341;28;20048;-78
2021/04/17 05:09:58;;;;;;;8.93;5.20;;;6.90;67.30;;;;;;5083356;28;20056;-78
2021/04/17 05:12:25;;;;;;;11.18;5.82;;;7.00;67.40;;;;;;5091401;28;20990;-78
2021/04/17 05:14:51;;;;;;;14.18;5.47;;;7.10;67.20;;;;;;5090630;28;20101;-78
2021/04/17 05:17:17;;;;;;;11.73;5.65;;;7.10;67.30;;;;;;5079659;28;20549;-77
2021/04/17 05:19:44;;;;;;;8.52;5.38;;;7.10;67.50;;;;;;5092544;28;20127;-78
2021/04/17 05:22:11;;;;;;;8.13;4.93;;;7.10;67.60;;;;;;5082185;28;20060;-77
2021/04/17 05:24:38;;;;;;;9.05;5.15;;;7.10;67.50;;;;;;5089492;28;20052;-77
2021/04/17 05:27:05;;;;;;;8.70;5.47;;;7.00;67.90;;;;;;5093705;28;20047;-78
2021/04/17 05:29:32;;;;;;;11.55;5.75;;;7.20;67.30;;;;;;5088313;28;20453;-77
2021/04/17 05:31:58;;;;;;;9.45;4.80;;;7.10;66.80;;;;;;5085285;28;20048;-76
2021/04/17 05:34:25;;;;;;;10.15;5.47;;;7.10;66.70;;;;;;5086501;28;20086;-78
2021/04/17 05:36:51;;;;;;;7.80;5.20;;;7.20;66.20;;;;;;5086797;28;20052;-78
2021/04/17 05:39:17;;;;;;;10.38;5.30;;;7.20;65.80;;;;;;5128490;27;20453;-77
2021/04/17 05:41:44;;;;;;;11.32;5.47;;;7.10;66.80;;;;;;5085112;28;20044;-77
2021/04/17 05:44:11;;;;;;;10.32;5.72;;;7.00;67.10;;;;;;5089391;28;20052;-78
2021/04/17 05:46:43;;;;;;;8.30;5.55;;;7.20;66.90;;;;;;5084455;28;20055;-76
2021/04/17 05:49:11;;;;;;;10.68;5.45;;;7.30;67.00;;;;;;5080192;28;20455;-77
2021/04/17 05:51:39;;;;;;;7.93;5.15;;;7.50;66.20;;;;;;5089184;28;20102;-77
2021/04/17 05:54:06;;;;;;;8.55;5.28;;;7.40;66.90;;;;;;5082900;28;20044;-77
2021/04/17 05:56:33;;;;;;;10.77;5.88;;;7.50;67.10;;;;;;5082267;28;20048;-76
2021/04/17 05:59:00;;;;;;;9.38;6.07;;;7.50;67.10;;;;;;5088504;28;20089;-77
2021/04/17 06:01:26;;;;;;;10.13;6.15;;;7.60;66.70;;;;;;5083131;28;20044;-77
2021/04/17 06:03:53;;;;;;;10.30;6.00;;;7.60;66.50;;;;;;5085408;28;20063;-78
2021/04/17 06:06:19;;;;;;;11.35;6.13;;;7.60;66.90;;;;;;5085468;28;20093;-78
2021/04/17 06:08:46;;;;;;;9.70;5.82;;;7.60;66.10;;;;;;5086625;28;20089;-78
2021/04/17 06:11:12;;;;;;;9.88;6.18;;;7.50;65.60;;;;;;5089728;28;20105;-79
2021/04/17 06:13:40;;;;;;;12.40;6.10;;;7.60;66.30;;;;;;5086500;28;20076;-80
2021/04/17 06:16:07;;;;;;;9.23;5.97;;;7.60;65.40;;;;;;5081609;28;20098;-80
2021/04/17 06:18:34;;;;;;;10.70;5.55;;;7.60;64.90;;;;;;5083852;28;20044;-79
2021/04/17 06:21:03;;;;;;;8.93;5.78;;;7.60;64.60;;;;;;5087323;28;20044;-79
2021/04/17 06:23:30;;;;;;;8.88;4.85;;;7.60;64.30;;;;;;5086565;28;20048;-74
2021/04/17 06:25:56;;;;;;;13.20;5.57;;;7.50;64.10;;;;;;5085625;28;20044;-78
2021/04/17 06:28:23;;;;;;;7.82;5.07;;;7.70;64.40;;;;;;5090451;28;20125;-79
2021/04/17 06:30:49;;;;;;;8.98;5.15;;;8.00;63.20;;;;;;5081269;28;20056;-79
2021/04/17 06:33:15;;;;;;;11.35;6.25;;;8.20;63.20;;;;;;5092336;28;20089;-78
2021/04/17 06:35:42;;;;;;;9.43;4.97;;;8.40;61.50;;;;;;5079794;28;20043;-78
2021/04/17 06:38:09;;;;;;;8.98;5.35;;;8.50;61.20;;;;;;5084558;28;20048;-78
2021/04/17 06:40:36;;;;;;;8.85;5.53;;;8.40;61.20;;;;;;5090131;28;20047;-79
2021/04/17 06:43:06;;;;;;;10.65;5.50;;;8.30;61.80;;;;;;5086070;28;20052;-77
2021/04/17 06:45:35;;;;;;;7.90;5.63;;;8.60;61.10;;;;;;5086293;28;20106;-79
2021/04/17 06:48:07;;;;;;;7.75;5.32;;;8.60;60.70;;;;;;5078491;28;20518;-79
2021/04/17 06:50:35;;;;;;;11.07;5.53;;;8.50;61.10;;;;;;5082087;28;20127;-77
2021/04/17 06:53:15;;;;;;;8.00;5.55;;;8.70;60.50;;;;;;5088738;28;20380;-79
2021/04/17 06:55:41;;;;;;;10.35;5.47;;;8.50;60.60;;;;;;5080944;28;20488;-79
2021/04/17 06:58:08;;;;;;;10.98;5.57;;;8.80;60.70;;;;;;5087119;28;20105;-77
2021/04/17 07:00:35;;;;;;;10.38;5.65;;;8.70;61.00;;;;;;5086079;28;20044;-78
2021/04/17 07:03:01;;;;;;;9.50;5.68;;;9.00;60.60;;;;;;5085282;28;20048;-77
2021/04/17 07:05:28;;;;;;;9.38;5.00;;;9.50;59.30;;;;;;5083950;28;20094;-78
2021/04/17 07:07:54;;;;;;;11.63;5.55;;;9.50;58.90;;;;;;5085270;28;20070;-78
2021/04/17 07:10:21;;;;;;;11.55;5.32;;;10.00;56.80;;;;;;5086292;28;20060;-80
2021/04/17 07:12:47;;;;;;;9.85;5.35;;;10.20;56.50;;;;;;5082115;28;20044;-75
2021/04/17 07:15:14;;;;;;;15.10;5.78;;;10.50;55.90;;;;;;5080271;28;20044;-80
2021/04/17 07:17:41;;;;;;;10.02;5.07;;;10.20;56.20;;;;;;5088333;28;20415;-77
2021/04/17 07:20:10;;;;;;;14.00;5.63;;;10.30;56.00;;;;;;5081615;28;20560;-77
2021/04/17 07:22:41;;;;;;;7.80;5.50;;;10.70;54.80;;;;;;5084257;28;20048;-79
2021/04/17 07:25:08;;;;;;;10.18;5.95;;;10.90;54.10;;;;;;5079335;28;20064;-78
2021/04/17 07:28:01;;;;;;;9.82;5.60;;;10.40;54.80;;;;;;5079435;28;20102;-78
2021/04/17 07:30:32;;;;;;;8.00;5.43;;;10.20;54.90;;;;;;5079570;28;20052;-78
2021/04/17 07:33:11;;;;;;;10.60;5.90;;;10.00;54.60;;;;;;5083567;28;20052;-77
2021/04/17 07:35:46;;;;;;;10.77;5.22;;;9.70;56.00;;;;;;5077052;28;20056;-77
2021/04/17 07:38:17;;;;;;;10.07;4.97;;;9.60;56.30;;;;;;5069920;28;20044;-74
2021/04/17 07:40:46;;;;;;;12.07;5.28;;;9.90;56.20;;;;;;5069646;28;20052;-76
2021/04/17 07:43:17;;;;;;;7.13;4.88;;;10.10;55.40;;;;;;5069842;28;20226;-73
2021/04/17 07:45:44;;;;;;;9.82;5.30;;;10.30;54.90;;;;;;5063894;28;20043;-76
2021/04/17 07:48:22;;;;;;;10.65;5.32;;;10.30;54.30;;;;;;5073061;28;20785;-74
2021/04/17 07:50:49;;;;;;;9.18;5.53;;;10.00;54.50;;;;;;5067703;28;20060;-76
2021/04/17 07:53:31;;;;;;;8.63;5.20;;;9.80;55.90;;;;;;5074450;28;20048;-74
2021/04/17 07:56:29;;;;;;;10.75;4.90;;;9.80;56.20;;;;;;5067397;28;20582;-77
2021/04/17 07:58:58;;;;;;;11.73;5.80;;;10.10;55.10;;;;;;5073370;28;20495;-73
2021/04/17 08:01:27;;;;;;;10.48;4.75;;;10.50;54.20;;;;;;5070303;28;20189;-77
2021/04/17 08:03:56;;;;;;;9.73;4.63;;;10.80;53.60;;;;;;5067975;28;20072;-73
2021/04/17 08:06:25;;;;;;;6.95;4.15;;;10.90;52.90;;;;;;5070526;28;20066;-78
2021/04/17 08:08:52;;;;;;;9.32;5.35;;;11.40;52.30;;;;;;5072938;28;20064;-73
2021/04/17 08:11:21;;;;;;;6.82;4.03;;;11.50;52.00;;;;;;5068603;28;20840;-77
2021/04/17 08:13:49;;;;;;;5.97;4.05;;;12.50;50.00;;;;;;5072237;28;20384;-73
2021/04/17 08:16:17;;;;;;;9.32;4.45;;;12.70;48.60;;;;;;5068606;28;20411;-76
2021/04/17 08:18:44;;;;;;;5.75;4.15;;;12.30;49.10;;;;;;5068835;28;20055;-78
2021/04/17 08:21:13;;;;;;;6.85;4.00;;;12.10;49.70;;;;;;5065224;28;20056;-76
2021/04/17 08:23:43;;;;;;;5.90;3.88;;;12.40;49.20;;;;;;5069678;28;21388;-75
2021/04/17 08:26:10;;;;;;;9.15;4.18;;;12.50;48.60;;;;;;5069210;28;20063;-75
2021/04/17 08:28:43;;;;;;;8.95;4.05;;;13.00;47.60;;;;;;5071757;28;20051;-78
2021/04/17 08:31:26;;;;;;;6.13;3.83;;;13.40;47.20;;;;;;5071081;28;20049;-77
2021/04/17 08:34:20;;;;;;;4.80;3.47;;;13.60;45.60;;;;;;5074664;28;20532;-76
2021/04/17 08:36:51;;;;;;;8.30;3.58;;;13.20;45.50;;;;;;5073945;28;20058;-74
2021/04/17 08:39:36;;;;;;;5.55;3.55;;;12.70;45.90;;;;;;5071469;28;20951;-73
2021/04/17 08:42:08;;;;;;;5.95;3.20;;;13.20;45.20;;;;;;5085509;28;20154;-76
2021/04/17 08:44:40;;;;;;;8.43;2.95;;;12.90;44.20;;;;;;5071320;28;20052;-76
2021/04/17 08:47:11;;;;;;;6.85;2.90;;;13.20;44.20;;;;;;5076867;28;20427;-75
2021/04/17 08:49:40;;;;;;;7.00;3.30;;;13.30;42.40;;;;;;5077331;28;20056;-75
2021/04/17 08:52:22;;;;;;;6.28;2.92;;;13.40;42.60;;;;;;5076461;28;20120;-75
2021/04/17 08:54:55;;;;;;;5.93;3.15;;;12.90;43.10;;;;;;5072185;28;20055;-75
2021/04/17 08:57:21;;;;;;;7.63;3.25;;;13.10;42.80;;;;;;5072007;28;20138;-74
2021/04/17 08:59:59;;;;;;;5.35;3.10;;;12.90;43.00;;;;;;5070219;28;20089;-74
2021/04/17 09:02:27;;;;;;;6.57;3.50;;;13.20;42.70;;;;;;5066901;28;20107;-73
2021/04/17 09:05:07;;;;;;;10.27;2.65;;;13.10;41.60;;;;;;5073075;28;20506;-73
2021/04/17 09:07:36;;;;;;;3.75;2.30;;;13.50;41.50;;;;;;5075208;28;21444;-73
2021/04/17 09:10:22;;;;;;;5.63;2.45;;;13.40;40.80;;;;;;5064820;28;20076;-73
2021/04/17 09:13:26;;;;;;;3.97;2.33;;;14.00;40.20;;;;;;5069454;28;20060;-73
2021/04/17 09:16:04;;;;;;;10.40;2.53;;;15.30;37.90;;;;;;5033205;28;20080;-74
2021/04/17 09:18:32;;;;;;;7.13;2.83;;;16.20;37.00;;;;;;5066014;28;20082;-73
2021/04/17 09:21:15;;;;;;;4.85;2.30;;;15.50;37.40;;;;;;5076005;28;20108;-73
2021/04/17 09:23:44;;;;;;;6.68;2.28;;;15.30;36.90;;;;;;5072826;28;20052;-73
2021/04/17 09:26:36;;;;;;;3.97;2.10;;;14.50;37.00;;;;;;5076168;28;20113;-74
2021/04/17 09:29:17;;;;;;;5.75;2.00;;;14.30;37.90;;;;;;5069173;28;20072;-74
2021/04/17 09:31:47;;;;;;;4.82;2.10;;;14.60;37.50;;;;;;5076195;28;20130;-74
2021/04/17 09:34:17;;;;;;;2.92;1.75;;;14.40;37.30;;;;;;5072455;28;20487;-74
2021/04/17 09:36:48;;;;;;;4.43;2.08;;;13.80;37.10;;;;;;5070705;28;20044;-73
2021/04/17 09:39:45;;;;;;;3.83;2.30;;;14.00;37.50;;;;;;5100799;27;20084;-73
2021/04/17 09:42:11;;;;;;;3.38;1.90;;;13.70;37.90;;;;;;5071923;28;20048;-73
2021/04/17 09:44:46;;;;;;;6.03;2.70;;;15.70;37.40;;;;;;5065011;28;20056;-74
2021/04/17 09:47:18;;;;;;;4.18;2.25;;;16.30;35.40;;;;;;5070044;28;20052;-73
2021/04/17 09:49:47;;;;;;;3.78;2.10;;;17.30;34.40;;;;;;5075660;28;20139;-73
2021/04/17 09:52:19;;;;;;;8.43;2.10;;;17.20;34.20;;;;;;5072563;28;21462;-73
2021/04/17 09:55:05;;;;;;;9.43;2.50;;;17.00;34.90;;;;;;5070224;28;20159;-73
2021/04/17 09:57:32;;;;;;;8.75;2.85;;;16.10;34.40;;;;;;5070465;28;20048;-74
2021/04/17 10:00:01;;;;;;;6.57;2.42;;;15.70;35.40;;;;;;5068875;28;20048;-74
2021/04/17 10:02:46;;;;;;;4.40;2.50;;;14.80;36.60;;;;;;5071901;28;20052;-75
2021/04/17 10:05:14;;;;;;;5.82;2.63;;;15.20;36.20;;;;;;5073968;28;20056;-75
2021/04/17 10:07:47;;;;;;;11.05;2.53;;;15.20;36.20;;;;;;5068799;28;20056;-75
2021/04/17 10:10:14;;;;;;;5.13;2.28;;;14.30;37.20;;;;;;5065137;28;20052;-75
2021/04/17 10:12:47;;;;;;;3.80;2.55;;;14.50;37.20;;;;;;5065676;28;20125;-75
2021/04/17 10:15:31;;;;;;;9.07;2.58;;;14.20;37.20;;;;;;5066075;28;20108;-75
2021/04/17 10:17:59;;;;;;;7.50;2.90;;;14.50;37.80;;;;;;5063807;28;20044;-75
2021/04/17 10:20:27;;;;;;;4.07;2.40;;;15.80;36.70;;;;;;5065088;28;20300;-74
2021/04/17 10:22:59;;;;;;;3.85;2.08;;;17.30;34.00;;;;;;5069657;28;20176;-74
2021/04/17 10:25:41;;;;;;;4.63;2.00;;;17.70;32.80;;;;;;5064184;28;20059;-74
2021/04/17 10:28:12;;;;;;;4.70;2.00;;;18.20;31.30;;;;;;5067736;28;20052;-74
2021/04/17 10:30:39;;;;;;;5.20;1.77;;;19.40;29.90;;;;;;5064953;28;20209;-75
2021/04/17 10:33:13;;;;;;;4.07;2.15;;;20.50;29.20;;;;;;5064531;28;20048;-78
2021/04/17 10:35:40;;;;;;;6.00;1.92;;;18.80;29.50;;;;;;5068705;28;20048;-73
2021/04/17 10:38:06;;;;;;;5.25;2.03;;;19.30;30.10;;;;;;5069216;28;20055;-75
2021/04/17 10:40:33;;;;;;;3.63;2.28;;;18.20;29.80;;;;;;5066024;28;20048;-73
2021/04/17 10:43:05;;;;;;;9.05;1.95;;;16.20;32.00;;;;;;5067337;28;20043;-72
2021/04/17 10:45:34;;;;;;;4.47;2.28;;;16.00;33.30;;;;;;5068340;28;20052;-73
2021/04/17 10:48:18;;;;;;;3.33;1.85;;;16.20;31.20;;;;;;5069913;28;20575;-76
2021/04/17 10:50:51;;;;;;;4.50;1.60;;;17.20;30.80;;;;;;5071624;28;20190;-75
2021/04/17 10:53:24;;;;;;;4.07;2.00;;;18.20;28.70;;;;;;5074339;28;20055;-75
2021/04/17 10:55:53;;;;;;;6.05;1.90;;;18.50;29.00;;;;;;5066716;28;20089;-76
2021/04/17 10:58:21;;;;;;;3.15;1.73;;;17.70;29.70;;;;;;5056587;28;20123;-75
2021/04/17 11:00:55;;;;;;;3.83;1.80;;;17.40;30.40;;;;;;5084133;27;20211;-74
2021/04/17 11:03:24;;;;;;;4.80;2.08;;;18.20;29.00;;;;;;5066277;28;20077;-75
2021/04/17 11:05:50;;;;;;;3.53;2.20;;;18.40;29.30;;;;;;5066194;28;20052;-76
2021/04/17 11:08:26;;;;;;;4.78;1.77;;;17.60;29.90;;;;;;5066927;28;21191;-74
2021/04/17 11:10:53;;;;;;;4.57;2.38;;;16.60;30.10;;;;;;5064711;28;21523;-76
2021/04/17 11:13:35;;;;;;;5.47;2.20;;;16.40;31.30;;;;;;5065205;28;20089;-74
2021/04/17 11:16:04;;;;;;;3.33;1.85;;;16.40;31.00;;;;;;5077667;28;20870;-75
2021/04/17 11:18:38;;;;;;;4.35;2.15;;;17.30;30.60;;;;;;5067441;28;20052;-76
2021/04/17 11:21:12;;;;;;;5.97;2.60;;;17.40;30.70;;;;;;5067145;28;20052;-74
2021/04/17 11:23:38;;;;;;;5.43;2.30;;;17.60;31.20;;;;;;5069399;28;20040;-74
2021/04/17 11:26:12;;;;;;;6.18;2.60;;;17.30;31.90;;;;;;5083755;28;20052;-75
2021/04/17 11:28:44;;;;;;;6.38;2.33;;;17.20;32.30;;;;;;5068857;28;20117;-74
2021/04/17 11:31:14;;;;;;;7.95;2.20;;;16.60;32.50;;;;;;5066553;28;20048;-75
2021/04/17 11:33:41;;;;;;;5.13;2.42;;;16.70;32.20;;;;;;5068400;28;20052;-76
2021/04/17 11:36:09;;;;;;;5.03;2.25;;;17.10;30.90;;;;;;5064886;28;20047;-76
2021/04/17 11:38:36;;;;;;;4.53;2.50;;;17.20;31.60;;;;;;5068642;28;20139;-76
2021/04/17 11:41:03;;;;;;;3.53;2.50;;;18.10;31.00;;;;;;5071506;28;20446;-75
2021/04/17 11:43:30;;;;;;;4.47;2.25;;;17.70;31.50;;;;;;5079546;28;20062;-74
2021/04/17 11:45:58;;;;;;;8.90;2.63;;;19.00;30.00;;;;;;5073949;28;20105;-74
2021/04/17 11:48:24;;;;;;;4.10;2.40;;;18.40;30.20;;;;;;5076951;28;20048;-76
2021/04/17 11:50:51;;;;;;;9.48;2.75;;;16.30;31.70;;;;;;5074548;28;20040;-75
2021/04/17 11:53:20;;;;;;;5.45;2.40;;;16.20;32.40;;;;;;5075885;28;20059;-77
2021/04/17 11:55:51;;;;;;;9.00;2.10;;;16.10;32.10;;;;;;5090163;28;20097;-76
2021/04/17 11:58:20;;;;;;;6.78;2.30;;;17.50;30.80;;;;;;5074359;28;20153;-76
2021/04/17 12:00:47;;;;;;;5.32;2.22;;;18.20;29.90;;;;;;5074375;28;20051;-77
2021/04/17 12:03:20;;;;;;;5.55;1.95;;;18.20;28.70;;;;;;5077315;28;20372;-77
2021/04/17 12:05:52;;;;;;;6.18;2.67;;;18.50;28.80;;;;;;5076213;28;20135;-77
2021/04/17 12:08:23;;;;;;;4.25;2.38;;;18.70;29.60;;;;;;5074254;28;20056;-78
2021/04/17 12:10:53;;;;;;;3.35;2.15;;;18.00;30.10;;;;;;5083842;28;20526;-77
2021/04/17 12:13:20;;;;;;;5.50;2.47;;;18.40;30.20;;;;;;5085016;28;20106;-77
2021/04/17 12:15:47;;;;;;;6.93;2.95;;;18.80;30.30;;;;;;5100960;28;20533;-76
2021/04/17 12:18:15;;;;;;;7.47;2.80;;;18.60;30.40;;;;;;5084176;28;20047;-77
2021/04/17 12:20:43;;;;;;;5.40;2.45;;;18.20;30.30;;;;;;5090918;28;20090;-76
2021/04/17 12:23:10;;;;;;;4.55;2.67;;;18.20;30.80;;;;;;5088485;28;20133;-78
2021/04/17 12:25:37;;;;;;;6.00;2.58;;;18.10;30.70;;;;;;5086853;28;20052;-77
2021/04/17 12:28:04;;;;;;;3.47;1.90;;;17.60;31.30;;;;;;5090380;28;20454;-79
2021/04/17 12:30:30;;;;;;;6.00;2.00;;;18.40;30.00;;;;;;5084715;28;20059;-78
2021/04/17 12:33:07;;;;;;;2.97;2.00;;;17.70;30.10;;;;;;5091605;28;20062;-77
2021/04/17 12:35:35;;;;;;;6.88;1.75;;;18.70;29.80;;;;;;5089926;28;20040;-78
2021/04/17 12:38:01;;;;;;;5.47;1.90;;;18.90;28.40;;;;;;5087023;28;20144;-75
2021/04/17 12:40:34;;;;;;;4.40;1.80;;;18.50;28.70;;;;;;5086734;28;20040;-78
2021/04/17 12:43:00;;;;;;;4.47;2.00;;;18.20;28.30;;;;;;5091093;28;20466;-77
2021/04/17 12:45:27;;;;;;;5.30;1.70;;;17.90;28.90;;;;;;5084265;28;20051;-76
2021/04/17 12:47:53;;;;;;;5.03;2.10;;;18.30;28.70;;;;;;5093521;28;20059;-79
2021/04/17 12:50:21;;;;;;;3.08;2.10;;;19.00;28.80;;;;;;5088051;28;20556;-77
2021/04/17 12:52:48;;;;;;;4.90;2.15;;;19.40;28.40;;;;;;5091894;28;20479;-77
2021/04/17 12:55:14;;;;;;;5.72;2.35;;;19.00;28.80;;;;;;5090601;28;20463;-78
2021/04/17 12:57:41;;;;;;;3.63;2.20;;;20.10;28.70;;;;;;5087361;28;20051;-78
2021/04/17 13:00:08;;;;;;;6.32;2.30;;;20.30;28.10;;;;;;5089387;28;20127;-75
2021/04/17 13:02:34;;;;;;;4.20;2.50;;;19.30;29.30;;;;;;5088660;28;20048;-78